Time;durP1;ratioP1;P1;durP2;ratioP2;P2;SDS_P1;SDS_P2;PMS_P1;PMS_P2;Temp;Humidity;BMP_temperature;BMP_pressure;BME280_temperature;BME280_humidity;BME280_pressure;Samples;Min_cycle;Max_cycle;Signal;HPM_P1;HPM_P2
2022/10/07 00:00:53;;;;;;;16.45;10.13;;;;;;;8.34;100.00;101731.50;1641128;85;21045;-70
2022/10/07 00:03:24;;;;;;;18.98;10.20;;;;;;;8.32;100.00;101728.94;1643130;85;21096;-70
2022/10/07 00:06:17;;;;;;;14.73;9.60;;;;;;;8.34;100.00;101727.20;1638321;85;21093;-70
2022/10/07 00:08:50;;;;;;;18.55;9.88;;;;;;;8.33;100.00;101720.39;1639591;86;21652;-70
2022/10/07 00:11:23;;;;;;;14.68;9.65;;;;;;;8.33;100.00;101722.09;1641017;85;21054;-70
2022/10/07 00:13:56;;;;;;;17.17;10.50;;;;;;;8.36;100.00;101717.77;1642103;85;21527;-70
2022/10/07 00:16:29;;;;;;;16.87;10.10;;;;;;;8.33;100.00;101719.11;1638977;86;21077;-70
2022/10/07 00:19:00;;;;;;;14.40;10.20;;;;;;;8.29;100.00;101713.58;1630761;86;21085;-70
2022/10/07 00:21:31;;;;;;;16.52;10.23;;;;;;;8.31;100.00;101718.70;1643088;86;21045;-70
2022/10/07 00:23:59;;;;;;;18.92;10.25;;;;;;;8.29;100.00;101721.72;1640321;85;21109;-70
2022/10/07 00:26:30;;;;;;;20.65;11.00;;;;;;;8.28;100.00;101720.05;1638794;85;21061;-69
2022/10/07 00:28:56;;;;;;;17.57;9.70;;;;;;;8.26;100.00;101719.22;1638677;86;21065;-70
2022/10/07 00:31:28;;;;;;;16.85;9.58;;;;;;;8.25;100.00;101717.51;1618162;86;21022;-70
2022/10/07 00:33:56;;;;;;;15.90;9.65;;;;;;;8.25;100.00;101718.80;1638983;85;21097;-70
2022/10/07 00:36:28;;;;;;;19.87;10.35;;;;;;;8.25;100.00;101718.34;1640638;86;21574;-70
2022/10/07 00:38:57;;;;;;;17.90;10.82;;;;;;;8.20;100.00;101719.70;1636270;86;21094;-70
2022/10/07 00:41:32;;;;;;;17.70;10.58;;;;;;;8.21;100.00;101715.42;1636192;84;21546;-70
2022/10/07 00:44:19;;;;;;;22.82;10.35;;;;;;;8.23;100.00;101717.11;1633497;86;21018;-71
2022/10/07 00:46:47;;;;;;;15.00;9.78;;;;;;;8.21;100.00;101717.57;1641891;86;21117;-69
2022/10/07 00:49:16;;;;;;;16.65;10.48;;;;;;;8.11;100.00;101714.73;1641540;85;21066;-70
2022/10/07 00:51:43;;;;;;;16.73;10.08;;;;;;;8.12;100.00;101719.42;1640275;85;21057;-70
2022/10/07 00:54:14;;;;;;;18.30;10.32;;;;;;;8.11;100.00;101713.45;1635647;86;21042;-70
2022/10/07 00:56:43;;;;;;;16.95;10.15;;;;;;;8.11;100.00;101715.14;1638901;85;21129;-70
2022/10/07 00:59:13;;;;;;;14.40;9.18;;;;;;;8.13;100.00;101717.25;1640392;86;21057;-70
2022/10/07 01:01:41;;;;;;;15.88;8.75;;;;;;;8.09;100.00;101710.47;1639340;86;21069;-70
2022/10/07 01:04:14;;;;;;;16.17;9.13;;;;;;;8.04;100.00;101713.11;1636104;85;21041;-70
2022/10/07 01:06:44;;;;;;;17.17;10.95;;;;;;;8.03;100.00;101710.98;1640588;86;21145;-70
2022/10/07 01:09:13;;;;;;;19.00;10.30;;;;;;;8.03;100.00;101708.86;1553953;91;21722;-71
2022/10/07 01:11:51;;;;;;;15.83;9.75;;;;;;;7.99;100.00;101713.62;1568852;89;21071;-70
2022/10/07 01:14:37;;;;;;;16.15;9.80;;;;;;;7.97;100.00;101717.92;1568947;89;21191;-70
2022/10/07 01:17:28;;;;;;;16.35;9.98;;;;;;;7.93;100.00;101718.84;1574751;89;21116;-70
2022/10/07 01:20:44;;;;;;;17.92;9.58;;;;;;;7.93;100.00;101724.80;1569737;89;21071;-70
2022/10/07 01:23:31;;;;;;;16.50;9.95;;;;;;;7.90;100.00;101720.14;1576706;90;21084;-70
2022/10/07 01:26:06;;;;;;;16.45;9.93;;;;;;;7.85;100.00;101722.78;1591340;88;21094;-70
2022/10/07 01:28:51;;;;;;;16.02;10.05;;;;;;;7.78;100.00;101723.71;1531110;89;21034;-70
2022/10/07 01:31:23;;;;;;;14.70;9.93;;;;;;;7.76;100.00;101723.72;1615589;88;21105;-70
2022/10/07 01:33:53;;;;;;;16.00;9.73;;;;;;;7.73;100.00;101722.94;1615475;87;21610;-70
2022/10/07 01:36:24;;;;;;;16.02;9.60;;;;;;;7.71;100.00;101722.95;1602314;88;21082;-69
2022/10/07 01:39:01;;;;;;;16.80;10.03;;;;;;;7.74;100.00;101724.63;1575718;89;21119;-70
2022/10/07 01:41:26;;;;;;;20.00;10.38;;;;;;;7.72;100.00;101725.08;1586575;88;21040;-70
2022/10/07 01:43:54;;;;;;;18.37;11.00;;;;;;;7.69;100.00;101731.53;1609309;88;22496;-70
2022/10/07 01:46:24;;;;;;;16.55;10.13;;;;;;;7.61;100.00;101725.22;1607876;88;21114;-70
2022/10/07 01:48:53;;;;;;;16.85;10.75;;;;;;;7.56;100.00;101725.28;1600251;88;21095;-69
2022/10/07 01:51:24;;;;;;;17.60;10.43;;;;;;;7.53;100.00;101718.89;1606223;88;21172;-70
2022/10/07 01:54:23;;;;;;;20.97;11.00;;;;;;;7.51;100.00;101726.20;1594605;88;21107;-70
2022/10/07 01:57:31;;;;;;;17.42;10.68;;;;;;;7.46;100.00;101723.70;1634690;86;21069;-69
2022/10/07 02:00:09;;;;;;;18.42;10.82;;;;;;;7.39;100.00;101718.21;1636583;85;21184;-69
2022/10/07 02:03:04;;;;;;;18.70;11.28;;;;;;;7.32;100.00;101712.31;1637175;86;21092;-69
2022/10/07 02:05:46;;;;;;;19.85;10.88;;;;;;;7.31;100.00;101705.48;1638036;86;21574;-69
2022/10/07 02:08:40;;;;;;;18.23;10.00;;;;;;;7.36;100.00;101709.27;1637892;86;21136;-70
2022/10/07 02:11:26;;;;;;;20.23;10.75;;;;;;;7.39;100.00;101713.93;1637266;86;21126;-70
2022/10/07 02:14:06;;;;;;;14.30;10.25;;;;;;;7.38;100.00;101713.53;1575314;89;21089;-70
2022/10/07 02:16:47;;;;;;;18.65;10.48;;;;;;;7.40;100.00;101715.64;1635787;86;21559;-70
2022/10/07 02:19:23;;;;;;;17.12;10.40;;;;;;;7.36;100.00;101716.95;1615718;87;21081;-70
2022/10/07 02:21:55;;;;;;;17.90;11.45;;;;;;;7.34;100.00;101709.72;1635645;86;21098;-69
2022/10/07 02:24:27;;;;;;;16.62;10.65;;;;;;;7.35;100.00;101709.70;1637207;86;21097;-70
2022/10/07 02:27:00;;;;;;;17.57;10.90;;;;;;;7.36;100.00;101710.14;1643660;85;21570;-69
2022/10/07 02:29:32;;;;;;;17.77;10.90;;;;;;;7.35;100.00;101716.11;1636308;86;21074;-70
2022/10/07 02:32:03;;;;;;;18.87;10.82;;;;;;;7.35;100.00;101717.39;1633761;86;21120;-70
2022/10/07 02:34:32;;;;;;;20.17;10.93;;;;;;;7.36;100.00;101724.23;1661767;85;21646;-70
2022/10/07 02:37:07;;;;;;;16.48;10.63;;;;;;;7.33;100.00;101729.37;1639975;85;21055;-70
2022/10/07 02:39:34;;;;;;;18.65;10.58;;;;;;;7.34;100.00;101725.09;1661118;85;21150;-70
2022/10/07 02:42:12;;;;;;;17.98;10.60;;;;;;;7.33;100.00;101725.52;1655187;85;21146;-70
2022/10/07 02:44:48;;;;;;;16.42;10.30;;;;;;;7.32;100.00;101724.25;1671142;85;21607;-69
2022/10/07 02:47:35;;;;;;;16.97;10.53;;;;;;;7.32;100.00;101716.16;1660559;85;21046;-70
2022/10/07 02:50:06;;;;;;;19.12;11.38;;;;;;;7.31;100.00;101719.57;1666621;85;21090;-70
2022/10/07 02:52:35;;;;;;;14.78;10.28;;;;;;;7.32;100.00;101718.72;1637186;85;21746;-69
2022/10/07 02:55:14;;;;;;;19.27;10.82;;;;;;;7.33;100.00;101724.25;1631861;85;22900;-69
2022/10/07 02:57:45;;;;;;;17.15;10.48;;;;;;;7.32;100.00;101725.13;1653298;85;21126;-69
2022/10/07 03:00:16;;;;;;;16.90;10.00;;;;;;;7.36;100.00;101721.67;1653896;85;21043;-70
2022/10/07 03:02:56;;;;;;;19.80;10.23;;;;;;;7.39;100.00;101725.89;1663570;85;21039;-70
2022/10/07 03:05:26;;;;;;;15.18;9.48;;;;;;;7.42;100.00;101721.59;1662127;85;21573;-70
2022/10/07 03:08:04;;;;;;;15.32;9.70;;;;;;;7.42;100.00;101725.44;1622974;87;21162;-70
2022/10/07 03:10:32;;;;;;;17.37;9.55;;;;;;;7.37;100.00;101734.87;1659878;85;21062;-70
2022/10/07 03:13:03;;;;;;;13.60;8.55;;;;;;;7.36;100.00;101734.88;1666097;85;21063;-71
2022/10/07 03:15:30;;;;;;;12.40;8.20;;;;;;;7.36;100.00;101731.91;1674167;85;21063;-71
2022/10/07 03:17:58;;;;;;;13.15;9.13;;;;;;;7.35;100.00;101732.77;1663640;85;21100;-70
2022/10/07 03:20:29;;;;;;;13.60;8.68;;;;;;;7.31;100.00;101724.70;1670870;85;21104;-70
2022/10/07 03:22:56;;;;;;;15.60;9.03;;;;;;;7.31;100.00;101733.66;1659486;85;21546;-70
2022/10/07 03:25:24;;;;;;;15.30;8.70;;;;;;;7.32;100.00;101734.09;1658783;85;21091;-71
2022/10/07 03:27:53;;;;;;;11.68;8.18;;;;;;;7.32;100.00;101728.97;1658387;85;21047;-71
2022/10/07 03:30:21;;;;;;;14.68;8.25;;;;;;;7.32;100.00;101735.78;1669159;85;21601;-71
2022/10/07 03:32:49;;;;;;;12.53;8.55;;;;;;;7.34;100.00;101740.05;1637705;85;21075;-71
2022/10/07 03:35:18;;;;;;;13.18;8.70;;;;;;;7.31;100.00;101736.22;1658894;85;21757;-71
2022/10/07 03:37:45;;;;;;;14.70;9.05;;;;;;;7.30;100.00;101734.54;1664078;85;21052;-70
2022/10/07 03:40:13;;;;;;;16.30;9.83;;;;;;;7.27;100.00;101741.40;1673027;85;21136;-70
2022/10/07 03:42:42;;;;;;;16.45;9.63;;;;;;;7.28;100.00;101737.55;1669958;85;21068;-70
2022/10/07 03:45:09;;;;;;;18.32;9.55;;;;;;;7.31;100.00;101734.94;1667526;85;21560;-71
2022/10/07 03:47:37;;;;;;;13.35;9.03;;;;;;;7.32;100.00;101737.94;1665144;85;21107;-71
2022/10/07 03:50:07;;;;;;;16.95;10.25;;;;;;;7.33;100.00;101740.89;1662187;85;21166;-70
2022/10/07 03:52:35;;;;;;;14.83;8.78;;;;;;;7.36;100.00;101746.41;1666894;85;21055;-71
2022/10/07 03:55:03;;;;;;;15.78;9.80;;;;;;;7.28;100.00;101752.05;1661246;85;21622;-71
2022/10/07 03:57:48;;;;;;;16.02;9.33;;;;;;;7.20;100.00;101754.71;1662754;85;21174;-71
2022/10/07 04:00:17;;;;;;;16.82;9.20;;;;;;;7.17;100.00;101754.72;1665773;85;21199;-70
2022/10/07 04:02:50;;;;;;;17.52;9.05;;;;;;;7.18;100.00;101758.56;1663728;85;21564;-70
2022/10/07 04:05:19;;;;;;;18.73;8.85;;;;;;;7.22;100.00;101760.67;1670758;85;21112;-71
2022/10/07 04:07:48;;;;;;;13.70;8.75;;;;;;;7.25;100.00;101756.78;1641243;85;21554;-71
2022/10/07 04:10:18;;;;;;;11.38;8.48;;;;;;;7.30;100.00;101757.59;1660298;85;21129;-71
2022/10/07 04:12:47;;;;;;;13.85;8.93;;;;;;;7.30;100.00;101758.87;1660785;85;21091;-70
2022/10/07 04:15:14;;;;;;;12.03;8.68;;;;;;;7.28;100.00;101750.77;1658121;85;21064;-70
2022/10/07 04:17:45;;;;;;;13.85;8.78;;;;;;;7.32;100.00;101755.86;1666150;85;21089;-71
2022/10/07 04:20:15;;;;;;;16.23;8.43;;;;;;;7.37;100.00;101757.92;1670944;85;21064;-71
2022/10/07 04:22:43;;;;;;;15.20;9.10;;;;;;;7.43;100.00;101759.14;1666641;85;21004;-71
2022/10/07 04:28:01;;;;;;;11.95;8.33;;;;;;;7.48;100.00;101764.64;1666387;85;22494;-71
2022/10/07 04:30:33;;;;;;;17.85;9.28;;;;;;;7.52;100.00;101761.19;1665270;85;21633;-71
2022/10/07 04:33:01;;;;;;;15.83;8.60;;;;;;;7.56;100.00;101769.25;1657744;85;21355;-71
2022/10/07 04:35:29;;;;;;;17.10;9.35;;;;;;;7.58;100.00;101770.08;1670871;85;21055;-70
2022/10/07 04:37:57;;;;;;;13.78;8.70;;;;;;;7.65;100.00;101774.73;1661115;85;21063;-71
2022/10/07 04:40:26;;;;;;;16.85;9.13;;;;;;;7.73;100.00;101770.36;1666793;85;21615;-71
2022/10/07 04:45:39;;;;;;;13.70;9.18;;;;;;;7.86;100.00;101773.61;1661778;84;21085;-70
2022/10/07 04:48:06;;;;;;;14.83;9.33;;;;;;;7.89;100.00;101774.42;1655034;85;21131;-70
2022/10/07 04:50:39;;;;;;;11.88;8.70;;;;;;;7.96;100.00;101778.59;1673920;85;21421;-70
2022/10/07 04:53:10;;;;;;;15.20;9.20;;;;;;;8.05;100.00;101772.92;1661325;85;21052;-70
2022/10/07 04:55:46;;;;;;;14.13;8.80;;;;;;;8.15;100.00;101777.06;1665840;85;21114;-71
2022/10/07 04:58:15;;;;;;;12.43;9.13;;;;;;;8.23;100.00;101773.95;1670151;85;21145;-70
2022/10/07 05:00:45;;;;;;;14.13;9.20;;;;;;;8.33;100.00;101779.41;1668674;85;21740;-69
2022/10/07 05:03:15;;;;;;;17.50;9.95;;;;;;;8.44;100.00;101789.98;1665463;85;21056;-70
2022/10/07 05:05:49;;;;;;;17.77;10.35;;;;;;;8.50;100.00;101795.86;1653389;85;21075;-69
2022/10/07 05:08:19;;;;;;;17.52;10.10;;;;;;;8.57;100.00;101801.30;1665762;85;21057;-71
2022/10/07 05:10:47;;;;;;;16.75;10.78;;;;;;;8.70;100.00;101794.69;1650604;85;21678;-70
2022/10/07 05:13:16;;;;;;;17.37;10.90;;;;;;;8.82;100.00;101796.64;1666512;85;21066;-71
2022/10/07 05:15:53;;;;;;;24.80;11.55;;;;;;;8.96;100.00;101796.84;1674155;85;21008;-70
2022/10/07 05:18:23;;;;;;;33.25;12.10;;;;;;;9.06;100.00;101794.97;1665063;85;21100;-71
2022/10/07 05:20:51;;;;;;;28.02;11.83;;;;;;;9.18;100.00;101804.58;1667186;85;21612;-70
2022/10/07 05:23:21;;;;;;;20.45;11.30;;;;;;;9.33;100.00;101800.92;1663404;85;21034;-70
2022/10/07 05:25:58;;;;;;;19.98;11.50;;;;;;;9.47;100.00;101802.36;1676284;85;21037;-70
2022/10/07 05:28:27;;;;;;;18.92;11.80;;;;;;;9.60;100.00;101799.98;1656099;85;21095;-70
2022/10/07 05:31:06;;;;;;;17.95;11.80;;;;;;;9.72;100.00;101803.60;1666896;85;21525;-70
2022/10/07 05:33:36;;;;;;;18.12;11.43;;;;;;;9.90;100.00;101802.39;1671125;85;21044;-71
2022/10/07 05:36:05;;;;;;;20.60;12.05;;;;;;;10.09;100.00;101807.15;1676785;85;21070;-70
2022/10/07 05:38:33;;;;;;;20.50;12.03;;;;;;;10.23;100.00;101805.96;1664470;85;21571;-70
2022/10/07 05:41:04;;;;;;;20.27;12.25;;;;;;;10.39;100.00;101809.08;1670355;85;21599;-71
2022/10/07 05:43:35;;;;;;;19.32;12.28;;;;;;;10.53;100.00;101812.63;1662124;85;21046;-70
2022/10/07 05:46:09;;;;;;;21.05;12.55;;;;;;;10.64;100.00;101813.66;1665948;85;21098;-71
2022/10/07 05:48:38;;;;;;;;;;;;;;;10.76;100.00;101815.95;1673110;85;21657;-71
2022/10/07 05:51:09;;;;;;;25.48;13.90;;;;;;;10.89;100.00;101817.80;1664538;84;20509;-70
2022/10/07 05:53:40;;;;;;;23.52;13.78;;;;;;;11.01;100.00;101817.50;1666204;84;21101;-70
2022/10/07 05:56:08;;;;;;;25.17;14.05;;;;;;;11.15;100.00;101822.73;1665056;84;21034;-70
2022/10/07 05:58:36;;;;;;;24.90;13.78;;;;;;;11.29;100.00;101821.09;1665289;83;21057;-71
2022/10/07 06:01:08;;;;;;;25.50;14.30;;;;;;;11.43;100.00;101820.29;1662602;83;21090;-71
2022/10/07 06:03:36;;;;;;;24.80;13.53;;;;;;;11.59;100.00;101819.44;1664313;84;21042;-70
2022/10/07 06:06:03;;;;;;;18.10;13.22;;;;;;;11.75;100.00;101814.70;1668011;84;21501;-71
2022/10/07 06:08:31;;;;;;;22.58;13.53;;;;;;;11.92;100.00;101808.66;1665138;84;21112;-70
2022/10/07 06:13:36;;;;;;;23.32;14.00;;;;;;;12.27;100.00;101808.52;1608004;85;21562;-71
2022/10/07 06:16:08;;;;;;;22.52;14.50;;;;;;;12.48;100.00;101818.17;1669562;85;21444;-70
2022/10/07 06:18:36;;;;;;;24.37;14.63;;;;;;;12.66;100.00;101825.80;1665951;85;21089;-71
2022/10/07 06:21:05;;;;;;;23.83;14.55;;;;;;;12.86;100.00;101835.49;1671955;85;21034;-71
2022/10/07 06:23:33;;;;;;;26.48;14.60;;;;;;;13.01;100.00;101827.22;1667384;84;21054;-70
2022/10/07 06:26:10;;;;;;;23.27;15.88;;;;;;;13.14;100.00;101833.30;1665166;83;21055;-71
2022/10/07 06:28:41;;;;;;;21.90;14.80;;;;;;;13.27;100.00;101842.31;1664263;84;21053;-71
2022/10/07 06:31:16;;;;;;;25.60;16.37;;;;;;;13.51;100.00;101844.54;1663506;85;21523;-71
2022/10/07 06:33:43;;;;;;;30.88;16.90;;;;;;;13.67;100.00;101843.55;1666952;84;21100;-70
2022/10/07 06:36:12;;;;;;;24.20;15.28;;;;;;;13.89;100.00;101846.22;1662780;84;21153;-71
2022/10/07 06:38:51;;;;;;;24.70;15.38;;;;;;;14.16;100.00;101848.22;1668215;83;21097;-70
2022/10/07 06:41:22;;;;;;;23.07;15.30;;;;;;;14.40;100.00;101856.80;1661977;85;21506;-70
2022/10/07 06:43:56;;;;;;;20.90;14.18;;;;;;;14.62;100.00;101856.84;1634635;85;21062;-71
2022/10/07 06:46:24;;;;;;;21.60;13.00;;;;;;;14.83;100.00;101860.78;1643421;86;21134;-70
2022/10/07 06:48:52;;;;;;;18.70;11.90;;;;;;;14.98;100.00;101858.88;1668113;83;21619;-70
2022/10/07 06:51:21;;;;;;;16.75;11.20;;;;;;;15.11;100.00;101868.28;1667284;83;21085;-70
2022/10/07 06:53:56;;;;;;;15.83;10.23;;;;;;;15.46;100.00;101878.09;1665901;85;21322;-70
2022/10/07 06:56:23;;;;;;;;;;;;;;;15.91;100.00;101882.20;1640187;84;21144;-71
2022/10/07 06:58:50;;;;;;;17.32;10.53;;;;;;;16.22;100.00;101903.77;1665285;85;20167;-71
2022/10/07 07:01:20;;;;;;;19.67;11.83;;;;;;;16.46;100.00;101902.23;1670422;85;21072;-70
2022/10/07 07:03:47;;;;;;;20.32;12.58;;;;;;;16.63;100.00;101908.33;1669110;84;21085;-71
2022/10/07 07:06:16;;;;;;;18.10;12.37;;;;;;;16.73;100.00;101918.31;1665052;85;21038;-71
2022/10/07 07:08:44;;;;;;;15.53;10.08;;;;;;;16.83;100.00;101911.78;1666130;84;21537;-71
2022/10/07 07:14:02;;;;;;;16.35;10.25;;;;;;;16.97;100.00;101929.30;1638075;85;21118;-70
2022/10/07 07:16:30;;;;;;;15.50;10.03;;;;;;;17.04;100.00;101920.77;1661976;85;21140;-71
2022/10/07 07:19:02;;;;;;;16.02;10.18;;;;;;;16.99;100.00;101923.12;1669453;84;21034;-71
2022/10/07 07:21:32;;;;;;;14.73;9.50;;;;;;;17.11;100.00;101925.59;1665147;84;21533;-71
2022/10/07 07:24:00;;;;;;;17.35;9.48;;;;;;;17.10;100.00;101929.10;1665424;83;21093;-71
2022/10/07 07:26:28;;;;;;;15.93;9.73;;;;;;;17.18;100.00;101932.17;1663550;83;21045;-71
2022/10/07 07:29:00;;;;;;;12.88;9.10;;;;;;;17.19;100.00;101929.09;1660585;83;21149;-71
2022/10/07 07:31:32;;;;;;;12.23;9.33;;;;;;;17.14;100.00;101933.23;1669333;85;21139;-71
2022/10/07 07:34:02;;;;;;;15.08;9.33;;;;;;;17.24;100.00;101931.03;1662016;84;21084;-71
2022/10/07 07:36:32;;;;;;;13.40;9.35;;;;;;;17.28;100.00;101926.52;1670114;84;21559;-70
2022/10/07 07:39:05;;;;;;;13.88;9.55;;;;;;;17.39;100.00;101918.53;1670995;85;21109;-70
2022/10/07 07:41:39;;;;;;;14.10;9.58;;;;;;;17.52;100.00;101925.76;1663050;84;21057;-71
2022/10/07 07:44:10;;;;;;;17.55;9.63;;;;;;;17.58;100.00;101923.67;1667250;84;21108;-70
2022/10/07 07:46:42;;;;;;;15.98;9.35;;;;;;;17.66;100.00;101926.33;1663558;84;21656;-71
2022/10/07 07:49:12;;;;;;;18.17;9.63;;;;;;;17.74;100.00;101930.68;1666935;85;21065;-71
2022/10/07 07:51:44;;;;;;;15.70;10.23;;;;;;;17.71;100.00;101933.46;1662404;84;21588;-71
2022/10/07 07:54:14;;;;;;;13.62;9.73;;;;;;;17.77;100.00;101921.42;1663549;85;21571;-71
2022/10/07 07:56:43;;;;;;;12.05;9.23;;;;;;;17.92;100.00;101922.41;1616072;88;21569;-70
2022/10/07 07:59:11;;;;;;;20.12;10.05;;;;;;;18.07;100.00;101925.52;1612547;87;21153;-72
2022/10/07 08:01:38;;;;;;;14.18;8.90;;;;;;;18.13;100.00;101922.59;1607950;87;21150;-71
2022/10/07 08:04:08;;;;;;;11.28;8.65;;;;;;;18.28;100.00;101918.77;1584704;89;21162;-71
2022/10/07 08:06:36;;;;;;;13.25;9.15;;;;;;;18.34;100.00;101915.36;1581340;88;21554;-71
2022/10/07 08:09:04;;;;;;;12.15;8.53;;;;;;;18.45;100.00;101914.80;1589922;88;21632;-71
2022/10/07 08:11:34;;;;;;;12.00;9.43;;;;;;;18.56;100.00;101915.03;1641597;85;21770;-70
2022/10/07 08:14:03;;;;;;;26.93;14.38;;;;;;;18.68;100.00;101904.86;1637948;85;21110;-70
2022/10/07 08:16:31;;;;;;;17.00;10.18;;;;;;;18.80;100.00;101906.80;1641282;86;21072;-71
2022/10/07 08:19:00;;;;;;;13.00;9.38;;;;;;;18.85;100.00;101909.98;1636976;86;21593;-70
2022/10/07 08:21:31;;;;;;;14.03;9.48;;;;;;;18.86;100.00;101912.98;1641891;86;21089;-70
2022/10/07 08:24:02;;;;;;;12.03;9.08;;;;;;;18.94;100.00;101904.25;1637976;86;21095;-70
2022/10/07 08:26:36;;;;;;;15.65;9.05;;;;;;;19.13;100.00;101913.62;1631395;86;21523;-71
2022/10/07 08:29:04;;;;;;;13.38;9.98;;;;;;;19.14;100.00;101908.33;1642478;86;21080;-71
2022/10/07 08:31:32;;;;;;;17.17;10.05;;;;;;;19.11;100.00;101916.79;1643743;85;21608;-71
2022/10/07 08:34:03;;;;;;;12.95;9.68;;;;;;;19.13;100.00;101917.55;1649613;86;21138;-71
2022/10/07 08:36:32;;;;;;;15.85;10.28;;;;;;;19.19;100.00;101911.49;1640251;85;21169;-71
2022/10/07 08:39:01;;;;;;;16.07;10.35;;;;;;;19.20;100.00;101907.10;1642969;86;21542;-71
2022/10/07 08:41:36;;;;;;;16.40;10.13;;;;;;;19.17;100.00;101911.22;1642821;86;21051;-71
2022/10/07 08:44:18;;;;;;;16.82;10.63;;;;;;;19.32;100.00;101917.30;1641587;86;21566;-71
2022/10/07 08:47:11;;;;;;;19.25;10.60;;;;;;;19.41;100.00;101913.69;1647145;86;21123;-71
2022/10/07 08:50:03;;;;;;;19.07;10.50;;;;;;;19.44;100.00;101908.74;1637255;86;21085;-71
2022/10/07 08:52:43;;;;;;;14.73;10.48;;;;;;;19.44;100.00;101910.52;1638525;86;21110;-72
2022/10/07 08:55:18;;;;;;;17.37;11.10;;;;;;;19.48;100.00;101904.19;1650794;85;21064;-71
2022/10/07 08:58:11;;;;;;;15.13;10.35;;;;;;;19.49;100.00;101905.88;1646103;85;21535;-71
2022/10/07 09:00:48;;;;;;;;;;;;;;;19.64;100.00;101907.56;1640298;86;21168;-70
2022/10/07 09:03:36;;;;;;;16.60;11.00;;;;;;;19.64;100.00;101918.01;1637856;86;20147;-71
2022/10/07 09:06:12;;;;;;;14.45;10.82;;;;;;;19.62;100.00;101919.88;1640480;86;21631;-70
2022/10/07 09:08:44;;;;;;;15.80;10.85;;;;;;;19.60;100.00;101917.82;1653262;86;21122;-72
2022/10/07 09:11:16;;;;;;;15.93;10.03;;;;;;;19.64;100.00;101909.34;1633131;86;21104;-71
2022/10/07 09:13:52;;;;;;;22.90;9.90;;;;;;;19.76;100.00;101917.30;1638781;86;21063;-71
2022/10/07 09:16:34;;;;;;;14.70;9.90;;;;;;;19.77;100.00;101919.47;1646502;86;21029;-71
2022/10/07 09:19:03;;;;;;;13.53;9.30;;;;;;;19.74;100.00;101922.25;1633816;85;21052;-71
2022/10/07 09:21:47;;;;;;;13.88;10.50;;;;;;;19.69;100.00;101918.59;1637394;85;21123;-71
2022/10/07 09:24:27;;;;;;;14.53;10.32;;;;;;;19.96;100.00;101915.26;1642660;86;21092;-71
2022/10/07 09:26:58;;;;;;;15.75;9.65;;;;;;;19.96;100.00;101915.26;1630584;85;21086;-71
2022/10/07 09:29:28;;;;;;;13.38;9.13;;;;;;;19.93;100.00;101919.35;1648346;86;21073;-72
2022/10/07 09:31:57;;;;;;;12.60;8.73;;;;;;;19.98;100.00;101906.86;1645010;85;21665;-71
2022/10/07 09:34:27;;;;;;;14.53;8.85;;;;;;;19.95;100.00;101910.50;1641997;85;21056;-71
2022/10/07 09:37:29;;;;;;;13.95;9.53;;;;;;;20.05;100.00;101902.91;1617562;86;21156;-71
2022/10/07 09:40:19;;;;;;;13.93;9.15;;;;;;;20.14;100.00;101912.81;1607094;88;21679;-71
2022/10/07 09:42:48;;;;;;;10.65;8.18;;;;;;;20.24;100.00;101902.62;1603415;88;21097;-72
2022/10/07 09:45:31;;;;;;;11.28;7.55;;;;;;;20.37;100.00;101903.52;1619513;87;21122;-71
2022/10/07 09:48:09;;;;;;;10.93;7.85;;;;;;;20.50;100.00;101905.34;1646178;86;21065;-71
2022/10/07 09:50:40;;;;;;;9.93;7.20;;;;;;;20.58;100.00;101910.95;1632050;86;21365;-71
2022/10/07 09:53:32;;;;;;;10.00;7.70;;;;;;;20.72;100.00;101899.61;1639935;85;21141;-71
2022/10/07 09:55:55;;;;;;;9.30;7.72;;;;;;;20.74;100.00;101897.28;1643574;85;21065;-70
2022/10/07 09:58:29;;;;;;;10.35;7.62;;;;;;;20.67;100.00;101901.22;1642694;86;21537;-71
2022/10/07 10:01:00;;;;;;;9.08;6.85;;;;;;;20.67;100.00;101898.61;1651780;86;21053;-72
2022/10/07 10:03:31;;;;;;;10.23;6.40;;;;;;;20.91;100.00;101893.55;1667400;84;21124;-71
2022/10/07 10:06:01;;;;;;;7.70;6.10;;;;;;;21.27;100.00;101905.59;1643860;85;21108;-71
2022/10/07 10:08:35;;;;;;;8.00;6.37;;;;;;;21.53;100.00;101894.25;1664606;84;21061;-70
2022/10/07 10:11:19;;;;;;;9.98;5.92;;;;;;;21.61;100.00;101887.14;1662321;84;21188;-71
2022/10/07 10:13:50;;;;;;;7.55;5.90;;;;;;;21.45;100.00;101897.00;1600490;87;21049;-71
2022/10/07 10:16:34;;;;;;;9.05;5.95;;;;;;;21.32;100.00;101891.73;1609429;88;21084;-71
2022/10/07 10:19:07;;;;;;;9.20;5.83;;;;;;;21.29;100.00;101878.38;1629599;87;21087;-71
2022/10/07 10:21:40;;;;;;;7.58;5.35;;;;;;;21.34;100.00;101881.99;1664559;85;21128;-71
2022/10/07 10:24:14;;;;;;;8.85;5.67;;;;;;;21.20;100.00;101887.67;1661374;84;21014;-71
2022/10/07 10:27:02;;;;;;;8.78;6.10;;;;;;;21.44;100.00;101879.62;1639652;85;21109;-71
2022/10/07 10:29:47;;;;;;;8.35;6.10;;;;;;;21.68;100.00;101884.48;1664367;84;21010;-71
2022/10/07 10:32:47;;;;;;;7.80;5.10;;;;;;;21.49;100.00;101886.23;1661792;85;21022;-71
2022/10/07 10:35:27;;;;;;;7.80;5.55;;;;;;;21.33;100.00;101881.16;1668673;85;21077;-71
2022/10/07 10:38:32;;;;;;;8.05;5.67;;;;;;;21.37;100.00;101880.01;1664435;85;21057;-70
2022/10/07 10:41:17;;;;;;;8.30;5.12;;;;;;;21.57;100.00;101875.20;1665347;85;21069;-70
2022/10/07 10:44:04;;;;;;;10.55;5.90;;;;;;;21.58;100.00;101870.34;1663294;84;22271;-71
2022/10/07 10:47:21;;;;;;;8.00;5.17;;;;;;;21.35;100.00;101871.86;1662840;85;21160;-71
2022/10/07 10:50:11;;;;;;;8.33;6.12;;;;;;;21.39;100.00;101878.57;1659074;83;21059;-71
2022/10/07 10:52:51;;;;;;;11.88;7.83;;;;;;;21.53;100.00;101861.94;1640383;84;21118;-71
2022/10/07 10:55:43;;;;;;;12.20;7.35;;;;;;;21.71;100.00;101865.08;1666366;85;21053;-71
2022/10/07 10:58:56;;;;;;;8.78;6.20;;;;;;;21.80;100.00;101858.73;1663040;85;21637;-72
2022/10/07 11:01:28;;;;;;;12.90;6.92;;;;;;;21.46;100.00;101859.40;1669623;84;21053;-72
2022/10/07 11:04:16;;;;;;;11.10;6.15;;;;;;;21.14;100.00;101854.53;1658465;84;21057;-71
2022/10/07 11:06:56;;;;;;;12.82;6.25;;;;;;;21.05;100.00;101852.06;1658831;85;21538;-71
2022/10/07 11:09:34;;;;;;;10.48;6.03;;;;;;;21.39;100.00;101849.31;1661751;85;21077;-71
2022/10/07 11:12:05;;;;;;;7.50;5.80;;;;;;;21.82;100.00;101845.52;1646985;84;21085;-71
2022/10/07 11:14:37;;;;;;;11.35;5.95;;;;;;;22.08;100.00;101846.30;1666982;85;21093;-71
2022/10/07 11:17:06;;;;;;;8.18;5.05;;;;;;;22.21;100.00;101846.23;1667564;84;21558;-71
2022/10/07 11:19:44;;;;;;;8.98;5.55;;;;;;;21.74;100.00;101847.36;1664898;84;21132;-72
2022/10/07 11:22:15;;;;;;;10.48;6.00;;;;;;;21.49;100.00;101856.10;1663220;83;21112;-71
2022/10/07 11:24:49;;;;;;;8.38;5.92;;;;;;;21.29;100.00;101852.64;1667474;84;21625;-72
2022/10/07 11:27:21;;;;;;;12.43;6.10;;;;;;;21.10;100.00;101860.44;1653730;84;21069;-71
2022/10/07 11:30:00;;;;;;;14.15;6.72;;;;;;;21.03;100.00;101860.97;1665311;85;21085;-71
2022/10/07 11:32:54;;;;;;;9.18;6.03;;;;;;;21.12;100.00;101865.09;1665929;85;21117;-72
2022/10/07 11:35:33;;;;;;;13.65;6.72;;;;;;;21.37;100.00;101856.44;1664590;85;21551;-71
2022/10/07 11:38:13;;;;;;;8.98;6.50;;;;;;;21.68;100.00;101859.58;1659783;84;21558;-72
2022/10/07 11:40:51;;;;;;;8.93;5.25;;;;;;;21.97;100.00;101858.83;1658430;85;21054;-71
2022/10/07 11:43:55;;;;;;;6.20;5.00;;;;;;;21.89;100.00;101851.98;1659813;86;21605;-71
2022/10/07 11:46:25;;;;;;;7.62;4.92;;;;;;;21.97;100.00;101854.90;1663807;84;21156;-71
2022/10/07 11:49:12;;;;;;;7.62;5.30;;;;;;;21.83;100.00;101851.59;1656509;85;21112;-71
2022/10/07 11:51:59;;;;;;;8.18;5.20;;;;;;;21.60;100.00;101853.56;1658358;85;21576;-72
2022/10/07 11:54:31;;;;;;;11.05;5.40;;;;;;;21.34;100.00;101858.42;1662291;84;21059;-72